createdAt,value
2018-10-15T00:00:38.762Z,100197.34
2018-10-15T00:01:44.787Z,100200.41
2018-10-15T00:02:51.092Z,100205.70
2018-10-15T00:03:57.430Z,100207.23
2018-10-15T00:05:03.475Z,100205.86
2018-10-15T00:06:09.817Z,100206.66
2018-10-15T00:07:16.244Z,100201.70
2018-10-15T00:08:22.649Z,100206.43
2018-10-15T00:09:28.977Z,100205.48
2018-10-15T00:10:35.295Z,100198.36
2018-10-15T00:11:41.614Z,100201.78
2018-10-15T00:12:47.667Z,100200.73
2018-10-15T00:13:53.939Z,100201.38
2018-10-15T00:14:59.663Z,100196.45
2018-10-15T00:16:05.220Z,100198.59
2018-10-15T00:17:11.613Z,100199.48
2018-10-15T00:18:17.930Z,100199.19
2018-10-15T00:19:24.269Z,100203.88
2018-10-15T00:20:30.538Z,100203.19
2018-10-15T00:21:36.771Z,100205.09
2018-10-15T00:22:43.058Z,100197.45
2018-10-15T00:23:49.410Z,100198.34
2018-10-15T00:24:55.718Z,100192.23
2018-10-15T00:26:02.007Z,100195.91
2018-10-15T00:27:08.393Z,100198.09
2018-10-15T00:28:14.641Z,100195.16
2018-10-15T00:29:20.975Z,100195.14
2018-10-15T00:30:27.360Z,100192.63
2018-10-15T00:31:33.671Z,100189.64
2018-10-15T00:32:40.080Z,100189.37
2018-10-15T00:33:46.388Z,100189.72
2018-10-15T00:34:52.712Z,100192.98
2018-10-15T00:35:59.018Z,100191.62
2018-10-15T00:37:04.985Z,100189.52
2018-10-15T00:38:11.330Z,100187.69
2018-10-15T00:39:17.766Z,100185.13
2018-10-15T00:40:24.092Z,100183.77
2018-10-15T00:41:30.354Z,100188.17
2018-10-15T00:42:37.223Z,100184.86
2018-10-15T00:43:43.740Z,100189.94
2018-10-15T00:44:50.059Z,100190.31
2018-10-15T00:45:56.344Z,100186.28
2018-10-15T00:47:02.635Z,100183.68
2018-10-15T00:48:09.273Z,100184.59
2018-10-15T00:49:15.872Z,100185.84
2018-10-15T00:50:21.894Z,100176.84
2018-10-15T00:51:28.021Z,100182.71
2018-10-15T00:52:34.426Z,100187.06
2018-10-15T00:53:40.822Z,100186.03
2018-10-15T00:54:47.148Z,100185.86
2018-10-15T00:55:53.455Z,100194.47
2018-10-15T00:56:59.744Z,100190.75
2018-10-15T00:58:06.102Z,100188.61
2018-10-15T00:59:12.476Z,100197.77
2018-10-15T01:00:18.809Z,100191.48
2018-10-15T01:01:24.251Z,100186.57
2018-10-15T01:02:30.538Z,100189.48
2018-10-15T01:03:36.801Z,100189.48
2018-10-15T01:04:43.150Z,100193.52
2018-10-15T01:05:49.449Z,100188.86
2018-10-15T01:06:55.842Z,100185.99
2018-10-15T01:08:02.072Z,100186.88
2018-10-15T01:09:08.638Z,100183.27
2018-10-15T01:10:15.842Z,100185.84
2018-10-15T01:11:22.127Z,100190.75
2018-10-15T01:12:28.477Z,100189.84
2018-10-15T01:13:34.730Z,100187.41
2018-10-15T01:14:40.872Z,100187.77
2018-10-15T01:15:47.308Z,100186.31
2018-10-15T01:16:53.593Z,100188.05
2018-10-15T01:17:59.883Z,100183.80
2018-10-15T01:19:06.155Z,100187.76
2018-10-15T01:20:12.537Z,100184.45
2018-10-15T01:21:18.836Z,100189.05
2018-10-15T01:22:25.139Z,100180.92
2018-10-15T01:23:31.366Z,100186.21
2018-10-15T01:24:37.651Z,100182.71
2018-10-15T01:25:44.006Z,100190.14
2018-10-15T01:26:50.272Z,100191.54
2018-10-15T01:27:56.632Z,100193.28
2018-10-15T01:29:02.533Z,100195.73
2018-10-15T01:30:08.269Z,100191.72
2018-10-15T01:31:14.602Z,100194.77
2018-10-15T01:32:20.978Z,100195.65
2018-10-15T01:33:27.312Z,100196.33
2018-10-15T01:34:33.656Z,100198.72
2018-10-15T01:35:39.983Z,100197.23
2018-10-15T01:36:46.265Z,100198.25
2018-10-15T01:37:52.569Z,100201.88
2018-10-15T01:38:58.902Z,100204.79
2018-10-15T01:40:04.618Z,100210.64
2018-10-15T01:41:11.001Z,100215.30
2018-10-15T01:42:17.360Z,100210.23
2018-10-15T01:43:23.640Z,100210.31
2018-10-15T01:44:30.690Z,100203.49
2018-10-15T01:45:37.098Z,100208.00
2018-10-15T01:46:43.575Z,100210.47
2018-10-15T01:47:49.816Z,100212.53
2018-10-15T01:48:56.129Z,100213.86
2018-10-15T01:50:02.437Z,100213.67
2018-10-15T01:51:08.874Z,100218.05
2018-10-15T01:52:15.184Z,100217.32
2018-10-15T01:53:21.558Z,100214.72
2018-10-15T01:54:27.873Z,100215.36
2018-10-15T01:55:34.223Z,100214.98
2018-10-15T01:56:40.538Z,100217.90
2018-10-15T01:57:46.810Z,100216.97
2018-10-15T01:58:53.318Z,100213.50
2018-10-15T01:59:59.664Z,100221.77
2018-10-15T02:01:05.490Z,100221.72
2018-10-15T02:02:12.102Z,100226.73
2018-10-15T02:03:18.126Z,100216.69
2018-10-15T02:04:24.531Z,100218.58
2018-10-15T02:05:30.831Z,100217.91
2018-10-15T02:06:37.122Z,100218.09
2018-10-15T02:07:43.449Z,100213.08
2018-10-15T02:08:49.733Z,100210.80
2018-10-15T02:09:56.059Z,100209.64
2018-10-15T02:11:02.380Z,100203.08
2018-10-15T02:12:08.702Z,100208.20
2018-10-15T02:13:15.072Z,100207.17
2018-10-15T02:14:21.380Z,100207.84
2018-10-15T02:15:27.727Z,100208.75
2018-10-15T02:16:33.795Z,100204.38
2018-10-15T02:17:40.331Z,100204.93
2018-10-15T02:18:46.730Z,100206.01
2018-10-15T02:19:53.052Z,100212.09
2018-10-15T02:20:59.399Z,100205.79
2018-10-15T02:22:05.326Z,100213.84
2018-10-15T02:23:11.696Z,100212.94
2018-10-15T02:24:18.048Z,100206.14
2018-10-15T02:25:24.327Z,100204.45
2018-10-15T02:26:30.645Z,100200.70
2018-10-15T02:27:37.046Z,100202.06
2018-10-15T02:28:43.333Z,100200.17
2018-10-15T02:29:49.638Z,100197.96
2018-10-15T02:30:55.906Z,100190.71
2018-10-15T02:32:02.279Z,100195.39
2018-10-15T02:33:08.294Z,100194.05
2018-10-15T02:34:14.701Z,100199.48
2018-10-15T02:35:21.026Z,100201.59
2018-10-15T02:36:27.432Z,100200.71
2018-10-15T02:37:33.719Z,100198.00
2018-10-15T02:38:40.160Z,100200.00
2018-10-15T02:39:46.448Z,100199.97
2018-10-15T02:40:52.796Z,100202.06
2018-10-15T02:41:59.184Z,100201.02
2018-10-15T02:43:05.499Z,100193.16
2018-10-15T02:44:11.821Z,100194.44
2018-10-15T02:45:18.110Z,100198.50
2018-10-15T02:46:24.447Z,100201.34
2018-10-15T02:47:30.378Z,100197.52
2018-10-15T02:48:36.761Z,100200.81
2018-10-15T02:49:43.068Z,100195.05
2018-10-15T02:50:49.464Z,100200.81
2018-10-15T02:51:55.905Z,100204.42
2018-10-15T02:53:02.198Z,100200.39
2018-10-15T02:54:08.541Z,100201.72
2018-10-15T02:55:14.839Z,100200.95
2018-10-15T02:56:21.149Z,100207.55
2018-10-15T02:57:27.444Z,100205.05
2018-10-15T02:58:33.782Z,100202.80
2018-10-15T02:59:40.190Z,100203.91
2018-10-15T03:00:46.526Z,100197.66
2018-10-15T03:01:52.831Z,100195.88
2018-10-15T03:02:59.160Z,100203.30
2018-10-15T03:04:04.735Z,100201.27
2018-10-15T03:05:11.119Z,100198.11
2018-10-15T03:06:17.122Z,100201.57
2018-10-15T03:07:23.195Z,100200.13
2018-10-15T03:08:29.558Z,100201.12
2018-10-15T03:09:35.854Z,100202.80
2018-10-15T03:10:41.950Z,100201.44
2018-10-15T03:11:48.322Z,100201.50
2018-10-15T03:12:54.680Z,100203.17
2018-10-15T03:14:01.148Z,100201.50
2018-10-15T03:15:06.827Z,100202.95
2018-10-15T03:16:12.947Z,100200.66
2018-10-15T03:17:18.866Z,100195.94
2018-10-15T03:18:25.221Z,100193.59
2018-10-15T03:19:30.894Z,100199.14
2018-10-15T03:20:37.237Z,100193.56
2018-10-15T03:21:43.562Z,100191.39
2018-10-15T03:22:49.856Z,100185.98
2018-10-15T03:23:56.174Z,100195.08
2018-10-15T03:25:01.784Z,100195.34
2018-10-15T03:26:08.176Z,100193.19
2018-10-15T03:27:14.492Z,100195.69
2018-10-15T03:28:20.818Z,100201.25
2018-10-15T03:29:27.209Z,100202.27
2018-10-15T03:30:33.494Z,100204.98
2018-10-15T03:31:40.906Z,100200.51
2018-10-15T03:32:47.312Z,100204.70
2018-10-15T03:33:53.574Z,100204.07
2018-10-15T03:35:00.502Z,100198.33
2018-10-15T03:36:06.172Z,100199.70
2018-10-15T03:37:12.532Z,100192.09
2018-10-15T03:38:18.966Z,100207.17
2018-10-15T03:39:25.248Z,100203.23
2018-10-15T03:40:32.295Z,100208.95
2018-10-15T03:41:38.717Z,100207.19
2018-10-15T03:42:45.273Z,100212.20
2018-10-15T03:43:51.660Z,100215.88
2018-10-15T03:44:57.565Z,100219.02
2018-10-15T03:46:04.141Z,100216.03
2018-10-15T03:47:10.594Z,100217.72
2018-10-15T03:48:16.943Z,100214.16
2018-10-15T03:49:23.182Z,100216.47
2018-10-15T03:50:29.282Z,100218.81
2018-10-15T03:51:35.934Z,100226.91
2018-10-15T03:52:42.211Z,100227.40
2018-10-15T03:53:48.529Z,100231.84
2018-10-15T03:54:54.750Z,100234.59
2018-10-15T03:56:00.768Z,100231.89
2018-10-15T03:57:06.834Z,100232.45
2018-10-15T03:58:12.724Z,100235.55
2018-10-15T03:59:19.070Z,100237.94
2018-10-15T04:00:25.395Z,100232.72
2018-10-15T04:01:31.714Z,100231.39
2018-10-15T04:02:37.791Z,100231.77
2018-10-15T04:03:44.314Z,100236.47
2018-10-15T04:04:50.648Z,100231.47
2018-10-15T04:05:56.574Z,100225.91
2018-10-15T04:07:02.978Z,100227.31
2018-10-15T04:08:09.254Z,100220.34
2018-10-15T04:09:15.415Z,100226.25
2018-10-15T04:10:21.771Z,100228.17
2018-10-15T04:11:28.121Z,100230.59
2018-10-15T04:12:34.421Z,100233.26
2018-10-15T04:13:40.775Z,100231.30
2018-10-15T04:14:47.326Z,100230.73
2018-10-15T04:15:53.716Z,100230.29
2018-10-15T04:17:00.315Z,100229.45
2018-10-15T04:18:06.584Z,100233.44
2018-10-15T04:19:12.904Z,100226.16
2018-10-15T04:20:19.196Z,100226.23
2018-10-15T04:21:25.600Z,100223.64
2018-10-15T04:22:31.787Z,100222.66
2018-10-15T04:23:38.148Z,100220.74
2018-10-15T04:24:44.446Z,100222.83
2018-10-15T04:25:50.769Z,100220.97
2018-10-15T04:26:57.303Z,100221.59
2018-10-15T04:28:03.800Z,100218.49
2018-10-15T04:29:10.108Z,100219.55
2018-10-15T04:30:16.553Z,100220.57
2018-10-15T04:31:22.965Z,100218.53
2018-10-15T04:32:29.273Z,100214.78
2018-10-15T04:33:35.555Z,100217.65
2018-10-15T04:34:41.861Z,100220.19
2018-10-15T04:35:47.946Z,100216.66
2018-10-15T04:36:54.181Z,100220.86
2018-10-15T04:38:01.076Z,100217.84
2018-10-15T04:39:07.160Z,100217.92
2018-10-15T04:40:13.665Z,100222.20
2018-10-15T04:41:19.946Z,100222.52
2018-10-15T04:42:26.294Z,100222.52
2018-10-15T04:43:32.580Z,100222.47
2018-10-15T04:44:38.950Z,100225.20
2018-10-15T04:45:45.195Z,100224.34
2018-10-15T04:46:51.805Z,100221.73
2018-10-15T04:47:58.149Z,100223.45
2018-10-15T04:49:05.736Z,100218.34
2018-10-15T04:50:12.349Z,100223.16
2018-10-15T04:51:18.686Z,100221.42
2018-10-15T04:52:25.041Z,100226.89
2018-10-15T04:53:31.364Z,100225.16
2018-10-15T04:54:37.643Z,100225.69
2018-10-15T04:55:43.900Z,100228.92
2018-10-15T04:56:50.231Z,100225.98
2018-10-15T04:57:56.507Z,100233.16
2018-10-15T04:59:02.806Z,100232.30
2018-10-15T05:00:08.439Z,100230.66
2018-10-15T05:01:15.034Z,100231.25
2018-10-15T05:02:21.441Z,100233.37
2018-10-15T05:03:27.718Z,100233.87
2018-10-15T05:04:33.891Z,100234.72
2018-10-15T05:05:39.848Z,100237.69
2018-10-15T05:06:46.343Z,100229.33
2018-10-15T05:07:52.623Z,100233.70
2018-10-15T05:08:58.876Z,100235.58
2018-10-15T05:10:04.486Z,100232.62
2018-10-15T05:11:10.814Z,100232.80
2018-10-15T05:12:17.333Z,100230.41
2018-10-15T05:13:24.410Z,100233.56
2018-10-15T05:14:30.959Z,100238.59
2018-10-15T05:15:37.815Z,100230.66
2018-10-15T05:16:44.183Z,100232.95
2018-10-15T05:17:50.581Z,100224.23
2018-10-15T05:18:57.313Z,100230.06
2018-10-15T05:20:03.997Z,100233.38
2018-10-15T05:21:10.443Z,100230.95
2018-10-15T05:22:16.783Z,100234.06
2018-10-15T05:24:09.469Z,100240.25
2018-10-15T05:25:15.904Z,100242.02
2018-10-15T05:26:22.129Z,100234.99
2018-10-15T05:27:28.374Z,100236.61
2018-10-15T05:28:34.614Z,100231.34
2018-10-15T05:29:40.824Z,100234.31
2018-10-15T05:30:47.327Z,100230.13
2018-10-15T05:31:53.839Z,100232.77
2018-10-15T05:33:00.262Z,100230.21
2018-10-15T05:34:06.651Z,100230.53
2018-10-15T05:35:12.956Z,100235.39
2018-10-15T05:36:19.312Z,100233.59
2018-10-15T05:37:25.875Z,100237.00
2018-10-15T05:38:32.254Z,100235.92
2018-10-15T05:39:38.525Z,100235.62
2018-10-15T05:40:44.905Z,100244.53
2018-10-15T05:41:51.245Z,100237.13
2018-10-15T05:42:57.676Z,100243.20
2018-10-15T05:44:03.702Z,100244.91
2018-10-15T05:45:10.075Z,100241.09
2018-10-15T05:46:16.024Z,100239.55
2018-10-15T05:47:22.071Z,100238.50
2018-10-15T05:48:28.549Z,100236.31
2018-10-15T05:49:34.814Z,100239.38
2018-10-15T05:50:41.274Z,100234.06
2018-10-15T05:51:47.430Z,100231.50
2018-10-15T05:52:53.563Z,100234.59
2018-10-15T05:53:59.976Z,100238.34
2018-10-15T05:55:05.879Z,100236.01
2018-10-15T05:56:12.272Z,100231.33
2018-10-15T05:57:18.588Z,100235.27
2018-10-15T05:58:25.023Z,100236.51
2018-10-15T05:59:31.098Z,100241.55
2018-10-15T06:00:37.335Z,100247.55
2018-10-15T06:01:43.775Z,100240.08
2018-10-15T06:02:52.282Z,100247.70
2018-10-15T06:03:58.553Z,100250.34
2018-10-15T06:05:04.119Z,100249.25
2018-10-15T06:06:10.520Z,100248.64
2018-10-15T06:07:16.775Z,100253.13
2018-10-15T06:08:23.156Z,100253.33
2018-10-15T06:09:29.500Z,100255.69
2018-10-15T06:10:35.858Z,100259.19
2018-10-15T06:11:42.213Z,100257.73
2018-10-15T06:12:48.293Z,100262.69
2018-10-15T06:13:54.843Z,100257.78
2018-10-15T06:15:01.138Z,100264.02
2018-10-15T06:16:07.565Z,100268.58
2018-10-15T06:17:13.977Z,100269.16
2018-10-15T06:18:20.368Z,100268.80
2018-10-15T06:19:26.901Z,100266.79
2018-10-15T06:20:33.174Z,100266.91
2018-10-15T06:21:39.482Z,100273.32
2018-10-15T06:22:46.744Z,100274.95
2018-10-15T06:23:53.358Z,100275.30
2018-10-15T06:24:59.722Z,100280.17
2018-10-15T06:26:05.620Z,100275.45
2018-10-15T06:27:11.812Z,100280.83
2018-10-15T06:28:17.998Z,100286.72
2018-10-15T06:29:24.287Z,100283.24
2018-10-15T06:30:30.603Z,100285.20
2018-10-15T06:31:36.926Z,100289.14
2018-10-15T06:32:43.264Z,100290.27
2018-10-15T06:33:49.691Z,100290.11
2018-10-15T06:34:56.265Z,100287.38
2018-10-15T06:36:02.260Z,100289.14
2018-10-15T06:37:08.564Z,100293.56
2018-10-15T06:38:15.161Z,100297.06
2018-10-15T06:39:21.791Z,100293.94
2018-10-15T06:40:28.334Z,100298.91
2018-10-15T06:41:34.771Z,100294.36
2018-10-15T06:42:41.413Z,100302.95
2018-10-15T06:43:47.825Z,100303.00
2018-10-15T06:44:54.388Z,100295.88
2018-10-15T06:46:00.773Z,100299.52
2018-10-15T06:47:06.390Z,100301.98
2018-10-15T06:48:12.912Z,100301.48
2018-10-15T06:49:19.307Z,100294.55
2018-10-15T06:50:25.855Z,100298.41
2018-10-15T06:51:32.282Z,100304.55
2018-10-15T06:52:38.892Z,100301.19
2018-10-15T06:53:45.309Z,100304.89
2018-10-15T06:54:51.815Z,100304.25
2018-10-15T06:55:58.121Z,100315.14
2018-10-15T06:57:04.501Z,100307.91
2018-10-15T06:58:11.053Z,100305.05
2018-10-15T06:59:17.515Z,100306.62
2018-10-15T07:00:24.057Z,100300.73
2018-10-15T07:01:30.628Z,100302.52
2018-10-15T07:02:36.602Z,100297.63
2018-10-15T07:03:42.959Z,100305.55
2018-10-15T07:04:49.250Z,100306.73
2018-10-15T07:05:55.556Z,100306.15
2018-10-15T07:07:01.896Z,100303.38
2018-10-15T07:08:08.280Z,100306.89
2018-10-15T07:09:14.614Z,100304.20
2018-10-15T07:10:21.018Z,100302.45
2018-10-15T07:11:27.523Z,100304.91
2018-10-15T07:12:33.831Z,100303.91
2018-10-15T07:13:40.195Z,100307.98
2018-10-15T07:14:46.817Z,100305.57
2018-10-15T07:15:53.381Z,100307.44
2018-10-15T07:16:59.714Z,100308.14
2018-10-15T07:18:05.732Z,100306.80
2018-10-15T07:19:12.375Z,100307.55
2018-10-15T07:20:18.945Z,100305.98
2018-10-15T07:21:25.464Z,100308.44
2018-10-15T07:22:31.783Z,100305.70
2018-10-15T07:23:38.078Z,100311.41
2018-10-15T07:24:44.474Z,100310.75
2018-10-15T07:25:50.583Z,100306.06
2018-10-15T07:26:56.834Z,100307.39
2018-10-15T07:28:03.181Z,100307.54
2018-10-15T07:29:09.458Z,100304.16
2018-10-15T07:30:15.639Z,100306.13
2018-10-15T07:31:22.053Z,100309.95
2018-10-15T07:32:28.384Z,100315.51
2018-10-15T07:33:34.700Z,100315.80
2018-10-15T07:34:42.201Z,100313.70
2018-10-15T07:35:48.434Z,100316.30
2018-10-15T07:36:54.754Z,100315.54
2018-10-15T07:38:01.184Z,100321.43
2018-10-15T07:39:07.487Z,100319.31
2018-10-15T07:40:13.966Z,100314.12
2018-10-15T07:41:20.553Z,100323.17
2018-10-15T07:42:26.571Z,100320.31
2018-10-15T07:43:32.934Z,100323.68
2018-10-15T07:44:39.289Z,100321.77
2018-10-15T07:45:45.883Z,100322.86
2018-10-15T07:46:52.287Z,100324.63
2018-10-15T07:47:58.571Z,100325.60
2018-10-15T07:49:04.245Z,100325.25
2018-10-15T07:50:09.971Z,100326.22
2018-10-15T07:51:16.490Z,100330.95
2018-10-15T07:52:22.958Z,100334.06
2018-10-15T07:53:29.518Z,100337.52
2018-10-15T07:54:35.898Z,100334.53
2018-10-15T07:55:42.137Z,100334.14
2018-10-15T07:56:48.450Z,100334.39
2018-10-15T07:57:54.702Z,100336.49
2018-10-15T07:59:01.080Z,100329.83
2018-10-15T08:00:06.945Z,100338.70
2018-10-15T08:01:14.210Z,100338.27
2018-10-15T08:02:20.511Z,100339.16
2018-10-15T08:03:27.078Z,100340.00
2018-10-15T08:04:33.411Z,100333.52
2018-10-15T08:05:39.742Z,100333.81
2018-10-15T08:06:46.295Z,100344.35
2018-10-15T08:07:52.239Z,100334.22
2018-10-15T08:08:58.669Z,100334.34
2018-10-15T08:10:04.562Z,100342.22
2018-10-15T08:11:10.842Z,100334.84
2018-10-15T08:12:17.434Z,100333.91
2018-10-15T08:13:23.770Z,100334.25
2018-10-15T08:14:30.206Z,100329.91
2018-10-15T08:15:36.538Z,100330.18
2018-10-15T08:16:43.012Z,100326.84
2018-10-15T08:17:49.355Z,100326.67
2018-10-15T08:18:55.655Z,100329.41
2018-10-15T08:20:01.966Z,100329.95
2018-10-15T08:21:08.610Z,100323.52
2018-10-15T08:22:15.085Z,100335.17
2018-10-15T08:23:21.590Z,100332.55
2018-10-15T08:24:27.890Z,100334.99
2018-10-15T08:25:34.125Z,100334.63
2018-10-15T08:26:40.173Z,100338.80
2018-10-15T08:27:45.840Z,100334.20
2018-10-15T08:28:52.182Z,100343.09
2018-10-15T08:29:58.666Z,100346.39
2018-10-15T08:31:04.260Z,100348.48
2018-10-15T08:32:10.652Z,100348.45
2018-10-15T08:33:16.997Z,100347.34
2018-10-15T08:34:23.066Z,100355.92
2018-10-15T08:35:29.549Z,100349.52
2018-10-15T08:36:36.184Z,100355.67
2018-10-15T08:37:42.503Z,100350.45
2018-10-15T08:38:48.942Z,100354.66
2018-10-15T08:39:55.385Z,100349.19
2018-10-15T08:41:01.690Z,100348.20
2018-10-15T08:42:08.973Z,100345.09
2018-10-15T08:43:15.563Z,100340.17
2018-10-15T08:44:21.602Z,100340.66
2018-10-15T08:45:28.053Z,100338.56
2018-10-15T08:46:34.339Z,100335.45
2018-10-15T08:47:40.111Z,100337.05
2018-10-15T08:48:46.167Z,100337.85
2018-10-15T08:49:52.538Z,100335.93
2018-10-15T08:50:59.183Z,100335.45
2018-10-15T08:52:05.386Z,100338.38
2018-10-15T08:53:11.890Z,100332.80
2018-10-15T08:54:18.274Z,100324.17
2018-10-15T08:55:24.556Z,100332.48
2018-10-15T08:56:30.955Z,100320.67
2018-10-15T08:57:37.367Z,100329.59
2018-10-15T08:58:43.419Z,100321.00
2018-10-15T08:59:53.864Z,100321.98
2018-10-15T09:01:00.252Z,100313.88
2018-10-15T09:02:06.534Z,100323.45
2018-10-15T09:03:12.930Z,100317.39
2018-10-15T09:04:19.309Z,100318.65
2018-10-15T09:05:31.646Z,100311.78
2018-10-15T09:06:38.100Z,100316.78
2018-10-15T09:07:44.609Z,100311.78
2018-10-15T09:08:51.114Z,100312.58
2018-10-15T09:09:57.439Z,100316.48
2018-10-15T09:11:03.502Z,100316.39
2018-10-15T09:12:09.967Z,100312.98
2018-10-15T09:13:16.677Z,100312.86
2018-10-15T09:14:23.231Z,100314.72
2018-10-15T09:15:29.639Z,100318.00
2018-10-15T09:16:35.981Z,100309.28
2018-10-15T09:17:46.997Z,100312.14
2018-10-15T09:18:53.400Z,100316.75
2018-10-15T09:20:00.042Z,100319.60
2018-10-15T09:21:06.636Z,100312.10
2018-10-15T09:22:13.204Z,100313.34
2018-10-15T09:23:19.507Z,100316.33
2018-10-15T09:24:25.972Z,100314.52
2018-10-15T09:25:32.286Z,100309.22
2018-10-15T09:26:43.469Z,100313.53
2018-10-15T09:27:50.148Z,100307.64
2018-10-15T09:28:57.770Z,100303.84
2018-10-15T09:30:04.646Z,100305.68
2018-10-15T09:31:11.266Z,100308.02
2018-10-15T09:32:18.821Z,100308.16
2018-10-15T09:33:26.256Z,100309.16
2018-10-15T09:34:36.892Z,100302.23
2018-10-15T09:35:43.306Z,100298.55
2018-10-15T09:36:49.866Z,100301.21
2018-10-15T09:37:56.420Z,100298.66
2018-10-15T09:39:02.935Z,100300.00
2018-10-15T09:40:09.602Z,100295.89
2018-10-15T09:41:15.897Z,100302.25
2018-10-15T09:42:22.476Z,100301.20
2018-10-15T09:43:28.960Z,100302.08
2018-10-15T09:44:35.332Z,100297.13
2018-10-15T09:45:41.738Z,100301.76
2018-10-15T09:46:48.238Z,100299.66
2018-10-15T09:47:54.551Z,100293.73
2018-10-15T09:49:00.907Z,100302.65
2018-10-15T09:50:06.787Z,100302.13
2018-10-15T09:51:13.793Z,100296.91
2018-10-15T09:52:20.416Z,100303.60
2018-10-15T09:53:26.873Z,100302.14
2018-10-15T09:54:33.440Z,100298.20
2018-10-15T09:55:43.891Z,100298.03
2018-10-15T09:56:50.270Z,100302.63
2018-10-15T09:57:56.895Z,100295.12
2018-10-15T09:59:03.517Z,100301.03
2018-10-15T10:00:09.139Z,100294.94
2018-10-15T10:01:15.316Z,100296.31
2018-10-15T10:02:21.712Z,100300.12
2018-10-15T10:03:28.139Z,100300.86
2018-10-15T10:04:34.484Z,100297.19
2018-10-15T10:05:40.783Z,100293.45
2018-10-15T10:06:46.741Z,100290.92
2018-10-15T10:07:53.108Z,100291.51
2018-10-15T10:08:59.740Z,100293.97
2018-10-15T10:10:05.610Z,100295.50
2018-10-15T10:11:12.048Z,100293.16
2018-10-15T10:12:18.448Z,100290.92
2018-10-15T10:13:24.959Z,100292.11
2018-10-15T10:14:31.304Z,100283.27
2018-10-15T10:15:37.905Z,100295.59
2018-10-15T10:16:44.199Z,100294.83
2018-10-15T10:17:50.922Z,100293.66
2018-10-15T10:18:57.140Z,100296.50
2018-10-15T10:20:03.421Z,100296.68
2018-10-15T10:21:09.823Z,100293.86
2018-10-15T10:22:16.114Z,100298.09
2018-10-15T10:23:22.619Z,100300.70
2018-10-15T10:24:28.893Z,100296.98
2018-10-15T10:25:35.217Z,100297.11
2018-10-15T10:26:41.700Z,100293.11
2018-10-15T10:27:48.230Z,100293.32
2018-10-15T10:28:54.588Z,100295.39
2018-10-15T10:30:01.187Z,100295.48
2018-10-15T10:31:07.859Z,100292.03
2018-10-15T10:32:14.478Z,100294.63
2018-10-15T10:33:21.144Z,100294.73
2018-10-15T10:34:43.817Z,100297.91
2018-10-15T10:36:14.141Z,100297.67
2018-10-15T10:37:20.583Z,100298.81
2018-10-15T10:38:26.907Z,100292.09
2018-10-15T10:39:33.269Z,100297.84
2018-10-15T10:40:39.619Z,100295.50
2018-10-15T10:41:46.116Z,100296.84
2018-10-15T10:42:52.604Z,100297.48
2018-10-15T10:43:58.977Z,100296.45
2018-10-15T10:45:04.719Z,100294.72
2018-10-15T10:46:11.249Z,100294.72
2018-10-15T10:47:17.854Z,100296.81
2018-10-15T10:48:24.377Z,100292.74
2018-10-15T10:49:30.642Z,100297.27
2018-10-15T10:50:36.947Z,100297.93
2018-10-15T10:51:43.375Z,100296.51
2018-10-15T10:52:49.673Z,100298.32
2018-10-15T10:53:55.971Z,100293.27
2018-10-15T10:55:02.404Z,100297.27
2018-10-15T10:56:08.751Z,100290.78
2018-10-15T10:57:15.019Z,100290.44
2018-10-15T10:58:21.347Z,100283.03
2018-10-15T10:59:27.891Z,100284.22
2018-10-15T11:00:34.496Z,100285.38
2018-10-15T11:01:40.533Z,100278.72
2018-10-15T11:02:46.969Z,100281.84
2018-10-15T11:03:53.597Z,100276.51
2018-10-15T11:04:59.953Z,100271.13
2018-10-15T11:06:05.673Z,100273.03
2018-10-15T11:07:12.083Z,100274.80
2018-10-15T11:08:18.238Z,100272.41
2018-10-15T11:09:24.699Z,100270.64
2018-10-15T11:10:30.958Z,100268.98
2018-10-15T11:11:37.407Z,100267.25
2018-10-15T11:12:43.734Z,100264.95
2018-10-15T11:13:50.031Z,100262.12
2018-10-15T11:14:56.664Z,100259.25
2018-10-15T11:16:03.443Z,100257.91
2018-10-15T11:17:09.695Z,100256.39
2018-10-15T11:18:16.161Z,100256.31
2018-10-15T11:19:22.481Z,100259.11
2018-10-15T11:20:28.871Z,100256.60
2018-10-15T11:21:35.711Z,100256.66
2018-10-15T11:22:42.039Z,100259.91
2018-10-15T11:23:48.451Z,100257.23
2018-10-15T11:24:54.790Z,100257.54
2018-10-15T11:26:01.080Z,100257.58
2018-10-15T11:27:07.401Z,100257.08
2018-10-15T11:28:13.712Z,100260.48
2018-10-15T11:29:20.127Z,100256.16
2018-10-15T11:30:26.487Z,100256.66
2018-10-15T11:31:32.943Z,100256.23
2018-10-15T11:32:39.253Z,100255.58
2018-10-15T11:33:45.631Z,100251.02
2018-10-15T11:34:52.363Z,100253.30
2018-10-15T11:35:58.908Z,100258.21
2018-10-15T11:37:05.026Z,100261.30
2018-10-15T11:38:11.172Z,100262.37
2018-10-15T11:39:17.422Z,100251.13
2018-10-15T11:40:24.121Z,100253.38
2018-10-15T11:41:30.849Z,100256.63
2018-10-15T11:42:37.720Z,100250.98
2018-10-15T11:43:44.090Z,100250.84
2018-10-15T11:44:50.831Z,100255.89
2018-10-15T11:45:57.644Z,100251.10
2018-10-15T11:47:03.710Z,100257.67
2018-10-15T11:48:10.293Z,100254.20
2018-10-15T11:49:16.618Z,100255.89
2018-10-15T11:50:23.044Z,100255.42
2018-10-15T11:51:29.445Z,100250.98
2018-10-15T11:52:35.960Z,100254.41
2018-10-15T11:53:42.460Z,100253.92
2018-10-15T11:54:49.007Z,100255.58
2018-10-15T11:55:55.280Z,100251.19
2018-10-15T11:57:01.739Z,100250.54
2018-10-15T11:58:08.027Z,100249.64
2018-10-15T11:59:14.337Z,100245.07
2018-10-15T12:00:20.641Z,100251.30
2018-10-15T12:01:26.957Z,100244.16
2018-10-15T12:02:33.955Z,100247.37
2018-10-15T12:03:40.487Z,100253.99
2018-10-15T12:04:47.105Z,100250.37
2018-10-15T12:05:53.437Z,100254.09
2018-10-15T12:06:59.906Z,100252.78
2018-10-15T12:08:05.893Z,100252.44
2018-10-15T12:09:12.030Z,100255.61
2018-10-15T12:10:18.374Z,100251.64
2018-10-15T12:11:24.456Z,100246.46
2018-10-15T12:12:30.821Z,100250.34
2018-10-15T12:13:37.212Z,100252.69
2018-10-15T12:14:43.506Z,100248.90
2018-10-15T12:15:49.657Z,100245.99
2018-10-15T12:16:55.998Z,100247.95
2018-10-15T12:18:02.592Z,100244.73
2018-10-15T12:19:09.038Z,100249.45
2018-10-15T12:20:15.606Z,100249.22
2018-10-15T12:21:21.894Z,100246.73
2018-10-15T12:22:28.401Z,100243.19
2018-10-15T12:23:34.925Z,100255.00
2018-10-15T12:24:41.241Z,100245.44
2018-10-15T12:25:47.668Z,100243.20
2018-10-15T12:26:53.979Z,100246.64
2018-10-15T12:28:00.421Z,100249.14
2018-10-15T12:29:06.693Z,100244.64
2018-10-15T12:30:12.720Z,100239.73
2018-10-15T12:31:19.149Z,100245.01
2018-10-15T12:32:25.768Z,100241.47
2018-10-15T12:33:32.151Z,100245.30
2018-10-15T12:34:38.417Z,100244.98
2018-10-15T12:35:44.677Z,100241.73
2018-10-15T12:36:50.996Z,100241.80
2018-10-15T12:37:57.425Z,100243.55
2018-10-15T12:39:03.359Z,100234.95